Time;durP1;ratioP1;P1;durP2;ratioP2;P2;SDS_P1;SDS_P2;PMS_P1;PMS_P2;Temp;Humidity;BMP_temperature;BMP_pressure;BME280_temperature;BME280_humidity;BME280_pressure;Samples;Min_cycle;Max_cycle;Signal;HPM_P1;HPM_P2
2023/07/08 00:00:02;;;;;;;;;;;;;;;;;;;;;
2023/07/08 00:08:37;;;;;;;5.90;4.50;;;;;;;;;;4781135;30;20053;-87
2023/07/08 00:12:11;;;;;;;11.52;5.05;;;;;;;;;;4836373;29;20488;-86
2023/07/08 00:19:12;;;;;;;8.68;4.93;;;;;;;;;;4844077;29;20046;-83
2023/07/08 00:21:58;;;;;;;9.00;4.90;;;;;;;;;;4846070;29;20042;-84
2023/07/08 00:51:19;;;;;;;12.20;5.22;;;;;;;;;;4823742;29;20540;-86
2023/07/08 00:54:15;;;;;;;7.03;4.72;;;;;;;;;;4815290;29;20046;-86
2023/07/08 00:57:03;;;;;;;10.10;4.70;;;;;;;;;;4843694;29;20057;-86
2023/07/08 00:59:58;;;;;;;15.65;4.97;;;;;;;;;;4849981;29;20053;-86
2023/07/08 01:02:55;;;;;;;7.70;4.80;;;;;;;;;;4849224;29;20046;-86
2023/07/08 01:05:40;;;;;;;7.20;5.05;;;;;;;;;;4849663;29;20045;-85
2023/07/08 01:08:28;;;;;;;10.07;4.70;;;;;;;;;;4844854;29;20476;-86
2023/07/08 01:11:13;;;;;;;10.02;5.20;;;;;;;;;;4849645;29;20049;-85
2023/07/08 01:14:03;;;;;;;9.43;4.70;;;;;;;;;;4849356;29;20054;-85
2023/07/08 01:16:54;;;;;;;9.23;4.72;;;;;;;;;;4836140;29;20441;-85
2023/07/08 01:19:57;;;;;;;10.43;5.07;;;;;;;;;;4862656;29;20046;-84
2023/07/08 01:22:52;;;;;;;7.90;4.95;;;;;;;;;;4862719;29;20042;-86
2023/07/08 01:25:38;;;;;;;8.15;4.63;;;;;;;;;;4861717;29;20419;-85
2023/07/08 01:28:31;;;;;;;9.23;4.60;;;;;;;;;;4862769;29;20485;-85
2023/07/08 01:31:21;;;;;;;9.95;4.80;;;;;;;;;;4856651;29;20049;-85
2023/07/08 01:34:12;;;;;;;8.23;4.47;;;;;;;;;;4868105;29;20042;-84
2023/07/08 01:40:38;;;;;;;10.63;4.68;;;;;;;;;;4875741;29;20404;-86
2023/07/08 01:43:24;;;;;;;8.15;4.38;;;;;;;;;;4855875;29;20121;-85
2023/07/08 01:46:24;;;;;;;11.30;5.47;;;;;;;;;;4862426;29;20045;-84
2023/07/08 01:49:14;;;;;;;8.07;4.82;;;;;;;;;;4855031;29;20041;-85
2023/07/08 01:51:59;;;;;;;11.40;4.32;;;;;;;;;;4855452;29;20045;-85
2023/07/08 01:54:57;;;;;;;12.60;7.95;;;;;;;;;;4844267;29;20050;-84
2023/07/08 01:57:42;;;;;;;97.90;52.53;;;;;;;;;;4843198;29;20050;-85
2023/07/08 02:00:44;;;;;;;91.45;51.47;;;;;;;;;;4862357;29;20492;-85
2023/07/08 02:03:30;;;;;;;97.82;54.47;;;;;;;;;;4843610;29;20045;-85
2023/07/08 02:06:26;;;;;;;55.13;34.42;;;;;;;;;;4843764;29;20049;-86
2023/07/08 02:09:16;;;;;;;33.72;21.10;;;;;;;;;;4855637;29;20042;-84
2023/07/08 02:12:22;;;;;;;21.30;12.23;;;;;;;;;;4849820;29;20046;-82
2023/07/08 02:15:09;;;;;;;17.13;9.35;;;;;;;;;;4842838;29;20049;-82
2023/07/08 02:18:04;;;;;;;12.85;8.13;;;;;;;;;;4859506;29;20057;-84
2023/07/08 02:20:50;;;;;;;17.77;13.02;;;;;;;;;;4873621;29;20049;-83
2023/07/08 02:23:36;;;;;;;20.08;13.77;;;;;;;;;;4844270;29;20420;-83
2023/07/08 02:26:21;;;;;;;18.55;10.63;;;;;;;;;;4861605;29;20050;-84
2023/07/08 02:29:07;;;;;;;15.07;5.75;;;;;;;;;;4842948;29;20046;-86
2023/07/08 02:32:06;;;;;;;12.48;6.90;;;;;;;;;;4861373;29;20057;-85
2023/07/08 02:34:56;;;;;;;8.50;4.95;;;;;;;;;;4861154;29;20049;-87
2023/07/08 02:37:56;;;;;;;13.30;4.97;;;;;;;;;;4861289;29;20433;-84
2023/07/08 02:41:03;;;;;;;21.60;8.27;;;;;;;;;;4848656;29;20050;-86
2023/07/08 02:43:57;;;;;;;11.05;6.15;;;;;;;;;;4862514;29;20403;-88
2023/07/08 02:46:49;;;;;;;8.30;5.28;;;;;;;;;;4842599;29;20045;-88
2023/07/08 02:49:58;;;;;;;8.13;5.10;;;;;;;;;;4849308;29;20045;-85
2023/07/08 02:52:44;;;;;;;10.82;5.60;;;;;;;;;;4842220;29;20046;-88
2023/07/08 02:55:30;;;;;;;9.02;5.15;;;;;;;;;;4860835;29;20054;-86
2023/07/08 02:58:16;;;;;;;7.18;5.40;;;;;;;;;;4847129;29;20042;-86
2023/07/08 03:01:08;;;;;;;10.48;5.38;;;;;;;;;;4863699;29;20480;-83
2023/07/08 03:04:00;;;;;;;7.13;5.53;;;;;;;;;;4849734;29;20054;-86
2023/07/08 03:06:45;;;;;;;9.80;5.72;;;;;;;;;;4858334;29;20440;-89
2023/07/08 03:09:33;;;;;;;9.50;4.78;;;;;;;;;;4850894;29;20392;-89
2023/07/08 03:12:19;;;;;;;8.93;5.47;;;;;;;;;;4863972;29;20404;-86
2023/07/08 03:15:07;;;;;;;13.18;5.47;;;;;;;;;;4864745;29;20058;-90
2023/07/08 03:17:59;;;;;;;8.20;5.00;;;;;;;;;;4861994;29;20054;-89
2023/07/08 03:20:50;;;;;;;8.27;5.70;;;;;;;;;;4864781;29;20053;-84
2023/07/08 03:23:37;;;;;;;15.48;5.57;;;;;;;;;;4851865;29;20049;-87
2023/07/08 03:26:25;;;;;;;8.90;5.80;;;;;;;;;;4865175;29;20445;-87
2023/07/08 03:29:15;;;;;;;13.00;5.82;;;;;;;;;;4864653;29;20427;-88
2023/07/08 03:32:02;;;;;;;11.00;5.38;;;;;;;;;;4838558;29;20050;-87
2023/07/08 03:34:51;;;;;;;10.75;5.55;;;;;;;;;;4867556;29;20054;-89
2023/07/08 03:37:36;;;;;;;11.15;6.22;;;;;;;;;;4846429;29;20042;-84
2023/07/08 03:40:23;;;;;;;11.15;5.90;;;;;;;;;;4864254;29;20062;-84
2023/07/08 03:43:08;;;;;;;11.30;5.15;;;;;;;;;;4863928;29;20042;-85
2023/07/08 03:45:55;;;;;;;8.43;4.78;;;;;;;;;;4863725;29;20488;-84
2023/07/08 03:48:41;;;;;;;11.10;5.10;;;;;;;;;;4864479;29;20046;-86
2023/07/08 03:51:31;;;;;;;12.38;5.25;;;;;;;;;;4845999;29;20053;-88
2023/07/08 03:54:19;;;;;;;13.45;5.45;;;;;;;;;;4845921;29;20046;-87
2023/07/08 03:57:05;;;;;;;14.65;5.70;;;;;;;;;;4850927;29;20053;-85
2023/07/08 03:59:51;;;;;;;11.57;5.22;;;;;;;;;;4863780;29;20045;-86
2023/07/08 04:02:37;;;;;;;10.15;5.28;;;;;;;;;;4863696;29;20061;-85
2023/07/08 04:05:24;;;;;;;10.23;5.10;;;;;;;;;;4863827;29;20054;-85
2023/07/08 04:08:10;;;;;;;9.02;4.88;;;;;;;;;;4862384;29;20041;-86
2023/07/08 04:11:05;;;;;;;10.60;4.90;;;;;;;;;;4863503;29;20045;-86
2023/07/08 04:13:50;;;;;;;10.30;5.30;;;;;;;;;;4846038;29;20053;-85
2023/07/08 04:16:47;;;;;;;13.57;5.32;;;;;;;;;;4863662;29;20054;-84
2023/07/08 04:19:34;;;;;;;10.25;4.72;;;;;;;;;;4856786;29;20049;-83
2023/07/08 04:22:19;;;;;;;7.30;4.45;;;;;;;;;;4845409;29;20058;-83
2023/07/08 04:25:05;;;;;;;9.60;4.97;;;;;;;;;;4844587;29;20057;-84
2023/07/08 04:27:51;;;;;;;7.35;4.75;;;;;;;;;;4845480;29;20054;-84
2023/07/08 04:30:40;;;;;;;7.72;4.22;;;;;;;;;;4859830;29;20049;-84
2023/07/08 04:33:26;;;;;;;12.02;4.80;;;;;;;;;;4854900;29;20054;-86
2023/07/08 04:36:13;;;;;;;9.85;4.65;;;;;;;;;;4845396;29;20053;-86
2023/07/08 04:38:59;;;;;;;9.23;4.50;;;;;;;;;;4844941;29;20049;-84
2023/07/08 04:41:46;;;;;;;6.63;4.32;;;;;;;;;;4862908;29;20054;-84
2023/07/08 04:44:32;;;;;;;12.43;4.50;;;;;;;;;;4844444;29;20492;-87
2023/07/08 04:47:20;;;;;;;9.73;4.57;;;;;;;;;;4844496;29;20046;-85
2023/07/08 04:50:06;;;;;;;7.93;4.35;;;;;;;;;;4862833;29;20046;-88
2023/07/08 04:52:51;;;;;;;8.65;3.95;;;;;;;;;;4862932;29;20050;-89
2023/07/08 04:55:41;;;;;;;10.02;4.10;;;;;;;;;;4844754;29;20045;-88
2023/07/08 04:58:27;;;;;;;17.10;5.30;;;;;;;;;;4862407;29;20046;-88
2023/07/08 05:01:13;;;;;;;8.05;4.28;;;;;;;;;;4862705;29;20046;-85
2023/07/08 05:03:59;;;;;;;7.05;4.78;;;;;;;;;;4862647;29;20045;-85
2023/07/08 05:06:45;;;;;;;7.55;4.13;;;;;;;;;;4844717;29;20046;-84
2023/07/08 05:09:31;;;;;;;10.82;4.50;;;;;;;;;;4844360;29;20050;-87
2023/07/08 05:12:16;;;;;;;11.25;5.35;;;;;;;;;;4843440;29;20049;-88
2023/07/08 05:15:02;;;;;;;9.68;4.68;;;;;;;;;;4862697;29;20061;-85
2023/07/08 05:17:50;;;;;;;8.55;4.40;;;;;;;;;;4843702;29;20050;-85
2023/07/08 05:20:36;;;;;;;10.95;5.00;;;;;;;;;;4849368;29;20050;-85
2023/07/08 05:23:22;;;;;;;9.38;4.70;;;;;;;;;;4849149;29;20049;-88
2023/07/08 05:26:07;;;;;;;7.13;4.63;;;;;;;;;;4843183;29;20050;-86
2023/07/08 05:28:52;;;;;;;6.68;4.22;;;;;;;;;;4830425;29;20056;-86
2023/07/08 05:31:38;;;;;;;9.60;4.13;;;;;;;;;;4844294;29;20046;-84
2023/07/08 05:34:24;;;;;;;9.48;4.38;;;;;;;;;;4843661;29;20045;-88
2023/07/08 05:37:10;;;;;;;10.05;4.68;;;;;;;;;;4844065;29;20053;-86
2023/07/08 05:39:56;;;;;;;12.45;4.53;;;;;;;;;;4830205;29;20046;-85
2023/07/08 05:42:42;;;;;;;9.02;5.30;;;;;;;;;;4836217;29;20054;-85
2023/07/08 05:45:27;;;;;;;10.77;4.28;;;;;;;;;;4844018;29;20042;-85
2023/07/08 05:48:13;;;;;;;9.27;4.60;;;;;;;;;;4842649;29;20046;-88
2023/07/08 05:50:58;;;;;;;7.63;4.55;;;;;;;;;;4844019;29;20050;-88
2023/07/08 05:53:44;;;;;;;6.80;4.63;;;;;;;;;;4843772;29;20058;-88
2023/07/08 05:56:30;;;;;;;13.77;4.38;;;;;;;;;;4843624;29;20050;-88
2023/07/08 05:59:16;;;;;;;12.15;4.65;;;;;;;;;;4847677;29;20057;-88
2023/07/08 06:02:01;;;;;;;10.38;4.40;;;;;;;;;;4842162;29;20046;-85
2023/07/08 06:04:47;;;;;;;13.43;4.95;;;;;;;;;;4843728;29;20050;-86
2023/07/08 06:07:32;;;;;;;8.18;3.97;;;;;;;;;;4835730;29;20050;-85
2023/07/08 06:10:18;;;;;;;11.75;5.60;;;;;;;;;;4843261;29;20057;-86
2023/07/08 06:13:03;;;;;;;6.90;4.30;;;;;;;;;;4846578;29;20057;-88
2023/07/08 06:15:49;;;;;;;22.38;10.73;;;;;;;;;;4842007;29;20057;-86
2023/07/08 06:18:34;;;;;;;10.82;7.47;;;;;;;;;;4843418;29;20404;-86
2023/07/08 06:21:20;;;;;;;10.23;5.70;;;;;;;;;;4843229;29;20400;-88
2023/07/08 06:24:05;;;;;;;8.50;4.80;;;;;;;;;;4843004;29;20053;-85
2023/07/08 06:26:51;;;;;;;6.55;4.30;;;;;;;;;;4842561;29;20046;-85
2023/07/08 06:29:37;;;;;;;10.73;4.25;;;;;;;;;;4843305;29;20042;-86
2023/07/08 06:32:22;;;;;;;6.57;3.85;;;;;;;;;;4848645;29;20049;-89
2023/07/08 06:35:10;;;;;;;5.95;3.70;;;;;;;;;;4843488;29;20396;-89
2023/07/08 06:38:29;;;;;;;10.15;5.18;;;;;;;;;;4823225;29;20046;-86
2023/07/08 06:41:43;;;;;;;7.75;4.60;;;;;;;;;;4834324;29;20058;-86
2023/07/08 06:44:28;;;;;;;7.07;4.15;;;;;;;;;;4882770;23;20062;-84
2023/07/08 06:47:14;;;;;;;10.18;4.28;;;;;;;;;;4868399;29;20045;-87
2023/07/08 06:49:59;;;;;;;9.77;3.90;;;;;;;;;;4868474;29;20045;-88
2023/07/08 06:52:48;;;;;;;7.55;4.00;;;;;;;;;;4858021;29;20057;-92
2023/07/08 06:55:59;;;;;;;8.80;4.03;;;;;;;;;;4871341;29;20393;-86
2023/07/08 06:58:44;;;;;;;8.13;3.65;;;;;;;;;;4872748;29;20057;-86
2023/07/08 07:01:37;;;;;;;5.65;4.00;;;;;;;;;;4860343;29;20048;-87
2023/07/08 07:04:22;;;;;;;7.57;4.03;;;;;;;;;;4871936;29;20045;-87
2023/07/08 07:07:07;;;;;;;8.88;4.25;;;;;;;;;;4871401;29;20049;-83
2023/07/08 07:09:54;;;;;;;9.57;4.00;;;;;;;;;;4867595;29;20049;-84
2023/07/08 07:12:39;;;;;;;6.88;3.70;;;;;;;;;;4865517;29;20053;-83
2023/07/08 07:15:24;;;;;;;11.45;4.65;;;;;;;;;;4865364;29;20389;-83
2023/07/08 07:18:10;;;;;;;5.95;4.00;;;;;;;;;;4865637;29;20049;-85
2023/07/08 07:20:58;;;;;;;5.57;4.00;;;;;;;;;;4866936;29;20049;-84
2023/07/08 07:23:43;;;;;;;6.55;3.92;;;;;;;;;;4867188;29;20049;-84
2023/07/08 07:26:30;;;;;;;8.30;5.53;;;;;;;;;;4873517;29;20482;-85
2023/07/08 07:29:21;;;;;;;10.02;4.15;;;;;;;;;;4873888;29;20049;-84
2023/07/08 07:32:08;;;;;;;8.82;4.30;;;;;;;;;;4867389;29;21645;-86
2023/07/08 07:34:53;;;;;;;9.93;4.05;;;;;;;;;;4867899;29;20045;-86
2023/07/08 07:37:39;;;;;;;12.02;4.45;;;;;;;;;;4872446;29;20045;-85
2023/07/08 07:40:25;;;;;;;8.65;4.00;;;;;;;;;;4872771;29;20429;-86
2023/07/08 07:43:10;;;;;;;6.95;4.30;;;;;;;;;;4868628;29;20049;-85
2023/07/08 07:45:56;;;;;;;9.10;4.72;;;;;;;;;;4870153;29;20049;-83
2023/07/08 07:48:42;;;;;;;8.32;3.90;;;;;;;;;;4870106;29;20057;-86
2023/07/08 07:51:27;;;;;;;7.88;4.65;;;;;;;;;;4878458;29;20405;-84
2023/07/08 07:54:13;;;;;;;7.00;3.90;;;;;;;;;;4875260;29;20056;-83
2023/07/08 07:56:58;;;;;;;5.47;3.92;;;;;;;;;;4882231;29;20038;-84
2023/07/08 07:59:46;;;;;;;8.38;3.90;;;;;;;;;;4878561;29;20490;-85
2023/07/08 08:02:30;;;;;;;9.15;4.10;;;;;;;;;;4867209;29;20045;-86
2023/07/08 08:05:16;;;;;;;6.72;3.67;;;;;;;;;;4870580;29;20045;-84
2023/07/08 08:08:03;;;;;;;7.80;4.07;;;;;;;;;;4870548;29;20034;-84
2023/07/08 08:10:48;;;;;;;6.15;4.03;;;;;;;;;;4871791;29;20038;-84
2023/07/08 08:13:34;;;;;;;7.32;3.20;;;;;;;;;;4869982;29;20049;-84
2023/07/08 08:16:21;;;;;;;7.75;4.15;;;;;;;;;;4869913;29;20046;-85
2023/07/08 08:19:06;;;;;;;24.48;14.85;;;;;;;;;;4870186;29;20042;-84
2023/07/08 08:21:52;;;;;;;103.15;78.90;;;;;;;;;;4867985;29;20037;-85
2023/07/08 08:24:37;;;;;;;27.77;20.40;;;;;;;;;;4868374;29;20045;-83
2023/07/08 08:27:23;;;;;;;57.42;47.70;;;;;;;;;;4869963;29;21485;-85
2023/07/08 08:30:09;;;;;;;34.92;24.13;;;;;;;;;;4869768;29;20050;-85
2023/07/08 08:32:54;;;;;;;20.63;16.08;;;;;;;;;;4873503;29;20054;-83
2023/07/08 08:35:39;;;;;;;6.75;3.17;;;;;;;;;;4869491;29;20041;-83
2023/07/08 08:38:24;;;;;;;5.85;3.83;;;;;;;;;;4871846;29;20421;-84
2023/07/08 08:41:15;;;;;;;4.95;3.30;;;;;;;;;;4872126;29;20049;-84
2023/07/08 08:44:03;;;;;;;9.68;3.70;;;;;;;;;;4870977;29;20058;-84
2023/07/08 08:47:20;;;;;;;4.45;3.38;;;;;;;;;;4869916;29;20053;-86
2023/07/08 08:50:27;;;;;;;9.65;3.55;;;;;;;;;;4875882;29;20070;-83
2023/07/08 08:53:16;;;;;;;6.60;2.90;;;;;;;;;;4879283;29;20061;-84
2023/07/08 08:56:14;;;;;;;8.80;3.70;;;;;;;;;;4874215;29;20045;-84
2023/07/08 08:59:26;;;;;;;7.22;3.05;;;;;;;;;;4862958;29;20045;-86
2023/07/08 09:02:32;;;;;;;6.70;3.22;;;;;;;;;;4870037;29;20424;-83
2023/07/08 09:05:17;;;;;;;6.07;3.15;;;;;;;;;;4874311;29;20049;-84
2023/07/08 09:08:18;;;;;;;12.73;3.17;;;;;;;;;;4868886;29;20102;-82
2023/07/08 09:11:41;;;;;;;6.53;3.58;;;;;;;;;;4871934;29;20053;-83
2023/07/08 09:14:28;;;;;;;11.68;3.33;;;;;;;;;;4829520;29;20142;-84
2023/07/08 09:17:22;;;;;;;8.80;3.90;;;;;;;;;;4829411;29;20045;-85
2023/07/08 09:20:28;;;;;;;6.50;3.50;;;;;;;;;;4870114;29;20049;-82
2023/07/08 09:23:29;;;;;;;5.60;3.00;;;;;;;;;;4868707;29;20400;-86
2023/07/08 09:26:20;;;;;;;6.95;3.15;;;;;;;;;;4868586;29;20045;-84
2023/07/08 09:29:10;;;;;;;5.72;3.08;;;;;;;;;;4873933;29;20049;-86
2023/07/08 09:31:59;;;;;;;6.18;2.90;;;;;;;;;;4868334;29;20053;-84
2023/07/08 09:35:01;;;;;;;5.85;3.28;;;;;;;;;;4873917;29;20061;-86
2023/07/08 09:37:48;;;;;;;8.35;3.22;;;;;;;;;;4867526;29;20041;-83
2023/07/08 09:40:33;;;;;;;6.63;2.80;;;;;;;;;;4867039;29;20045;-86
2023/07/08 09:43:37;;;;;;;8.15;3.30;;;;;;;;;;4867093;29;20049;-84
2023/07/08 09:46:22;;;;;;;5.88;3.00;;;;;;;;;;4873610;29;20049;-84
2023/07/08 09:49:25;;;;;;;16.02;3.50;;;;;;;;;;4868197;29;20049;-85
2023/07/08 09:52:12;;;;;;;7.93;3.00;;;;;;;;;;4867105;29;20409;-82
2023/07/08 09:54:56;;;;;;;4.82;2.72;;;;;;;;;;4868099;29;20057;-85
2023/07/08 09:57:44;;;;;;;4.82;3.10;;;;;;;;;;4873389;29;20045;-83
2023/07/08 10:00:38;;;;;;;9.27;2.88;;;;;;;;;;4865908;29;20049;-83
2023/07/08 10:03:33;;;;;;;6.70;3.10;;;;;;;;;;4867550;29;20393;-84
2023/07/08 10:06:27;;;;;;;5.07;3.20;;;;;;;;;;4867600;29;20045;-85
2023/07/08 10:09:19;;;;;;;8.40;3.47;;;;;;;;;;4867788;29;20045;-83
2023/07/08 10:12:11;;;;;;;5.63;2.70;;;;;;;;;;4866906;29;20041;-85
2023/07/08 10:15:02;;;;;;;9.43;2.78;;;;;;;;;;4868063;29;20065;-82
2023/07/08 10:17:48;;;;;;;4.55;2.85;;;;;;;;;;4867776;29;20045;-83
2023/07/08 10:20:54;;;;;;;7.10;2.72;;;;;;;;;;4867111;29;20061;-83
2023/07/08 10:24:04;;;;;;;4.50;2.70;;;;;;;;;;4867694;29;20365;-84
2023/07/08 10:27:22;;;;;;;8.57;2.90;;;;;;;;;;4880378;29;20049;-84
2023/07/08 10:30:19;;;;;;;5.05;3.20;;;;;;;;;;4869829;29;20052;-80
2023/07/08 10:33:37;;;;;;;8.02;2.50;;;;;;;;;;4877701;29;20057;-80
2023/07/08 10:36:52;;;;;;;6.75;2.78;;;;;;;;;;4877627;29;20049;-80
2023/07/08 10:39:44;;;;;;;11.68;2.78;;;;;;;;;;4867039;29;20053;-82
2023/07/08 10:42:53;;;;;;;6.20;3.00;;;;;;;;;;4866101;29;20048;-81
2023/07/08 10:46:07;;;;;;;5.88;2.78;;;;;;;;;;4866006;29;20057;-85
2023/07/08 10:49:10;;;;;;;7.80;2.80;;;;;;;;;;4873578;29;20053;-82
2023/07/08 10:52:20;;;;;;;5.00;2.95;;;;;;;;;;4868974;29;20061;-82
2023/07/08 10:55:27;;;;;;;4.25;2.90;;;;;;;;;;4872360;29;20075;-84
2023/07/08 10:58:16;;;;;;;9.10;2.45;;;;;;;;;;4872853;29;20477;-83
2023/07/08 11:01:19;;;;;;;5.35;2.58;;;;;;;;;;4871104;29;20502;-84
2023/07/08 11:04:43;;;;;;;4.45;2.80;;;;;;;;;;4866465;29;20061;-86
2023/07/08 11:08:14;;;;;;;6.53;2.58;;;;;;;;;;4858414;29;20057;-88
2023/07/08 11:11:34;;;;;;;4.07;2.40;;;;;;;;;;4843428;29;20057;-85
2023/07/08 11:14:56;;;;;;;7.55;2.85;;;;;;;;;;4875744;29;20046;-86
2023/07/08 11:18:31;;;;;;;6.63;2.65;;;;;;;;;;4868203;29;20048;-85
2023/07/08 11:21:21;;;;;;;4.88;2.55;;;;;;;;;;4825425;29;20046;-86
2023/07/08 11:24:31;;;;;;;4.40;2.70;;;;;;;;;;4818067;29;20115;-84
2023/07/08 11:27:36;;;;;;;7.38;2.95;;;;;;;;;;4866229;29;20401;-86
2023/07/08 11:30:24;;;;;;;6.63;2.22;;;;;;;;;;4869175;29;20054;-85
2023/07/08 11:33:23;;;;;;;4.53;2.40;;;;;;;;;;4870977;29;20389;-86
2023/07/08 11:36:12;;;;;;;4.03;2.60;;;;;;;;;;4877120;29;20049;-86
2023/07/08 11:39:00;;;;;;;7.35;2.83;;;;;;;;;;4862829;29;20049;-86
2023/07/08 11:41:46;;;;;;;4.82;2.55;;;;;;;;;;4869621;29;20045;-84
2023/07/08 11:44:33;;;;;;;4.30;2.70;;;;;;;;;;4869880;29;20053;-83
2023/07/08 11:47:46;;;;;;;5.03;2.60;;;;;;;;;;4869607;29;20049;-86
2023/07/08 11:50:36;;;;;;;6.10;2.30;;;;;;;;;;4861654;29;20053;-83
2023/07/08 11:53:46;;;;;;;2.30;2.00;;;;;;;;;;4869432;29;20041;-87
2023/07/08 11:56:59;;;;;;;5.00;2.75;;;;;;;;;;4869063;29;20049;-86
2023/07/08 11:59:46;;;;;;;5.18;2.70;;;;;;;;;;4847283;29;20049;-84
2023/07/08 12:02:48;;;;;;;4.28;2.30;;;;;;;;;;4869654;29;20049;-82
2023/07/08 12:05:38;;;;;;;6.53;2.10;;;;;;;;;;4869563;29;20045;-83
2023/07/08 12:08:33;;;;;;;4.28;2.17;;;;;;;;;;4876793;29;20485;-83
2023/07/08 12:15:31;;;;;;;7.40;2.20;;;;;;;;;;4867010;29;20075;-85
2023/07/08 12:18:45;;;;;;;6.72;2.08;;;;;;;;;;4877087;29;20045;-88
2023/07/08 12:21:34;;;;;;;3.78;2.60;;;;;;;;;;4869580;29;20038;-86
2023/07/08 12:24:31;;;;;;;3.92;2.28;;;;;;;;;;4878286;29;20053;-87
2023/07/08 12:27:31;;;;;;;5.35;2.50;;;;;;;;;;4866580;29;20057;-87
2023/07/08 12:30:51;;;;;;;4.22;2.25;;;;;;;;;;4867139;29;20053;-89
2023/07/08 12:33:41;;;;;;;3.58;2.40;;;;;;;;;;4862361;29;20049;-88
2023/07/08 12:36:55;;;;;;;5.65;2.50;;;;;;;;;;4877051;29;20053;-86
2023/07/08 12:40:15;;;;;;;3.58;2.05;;;;;;;;;;4845451;29;20052;-87
2023/07/08 12:43:21;;;;;;;3.35;2.30;;;;;;;;;;4872619;29;20061;-88
2023/07/08 12:46:16;;;;;;;3.22;2.40;;;;;;;;;;4866015;29;20409;-86
2023/07/08 12:49:01;;;;;;;2.17;1.80;;;;;;;;;;4877257;29;20053;-86
2023/07/08 12:52:05;;;;;;;8.35;2.53;;;;;;;;;;4877046;29;20045;-89
2023/07/08 12:54:52;;;;;;;4.38;2.60;;;;;;;;;;4873586;29;20041;-86
2023/07/08 12:58:34;;;;;;;5.05;2.33;;;;;;;;;;4871233;29;20045;-90
2023/07/08 13:01:30;;;;;;;4.82;2.13;;;;;;;;;;4865044;29;20045;-86
2023/07/08 13:04:16;;;;;;;4.03;2.47;;;;;;;;;;4870161;29;20486;-85
2023/07/08 13:07:03;;;;;;;5.63;2.75;;;;;;;;;;4863508;29;20049;-86
2023/07/08 13:09:49;;;;;;;4.57;2.90;;;;;;;;;;4878691;29;20057;-83
2023/07/08 13:12:38;;;;;;;7.28;2.90;;;;;;;;;;4876961;29;20041;-84
2023/07/08 13:15:30;;;;;;;7.35;2.83;;;;;;;;;;4867974;29;20492;-85
2023/07/08 13:18:19;;;;;;;10.25;3.00;;;;;;;;;;4870427;29;20047;-86
2023/07/08 13:21:11;;;;;;;6.63;2.40;;;;;;;;;;4867473;29;20049;-83
2023/07/08 13:23:57;;;;;;;5.70;2.67;;;;;;;;;;4866431;29;20049;-83
2023/07/08 13:26:48;;;;;;;6.82;2.88;;;;;;;;;;4869051;29;20076;-83
2023/07/08 13:29:35;;;;;;;4.45;2.50;;;;;;;;;;4867300;29;20049;-86
2023/07/08 13:32:20;;;;;;;3.72;2.50;;;;;;;;;;4868010;29;20049;-83
2023/07/08 13:35:40;;;;;;;5.45;3.45;;;;;;;;;;4873730;29;20057;-84
2023/07/08 13:38:32;;;;;;;4.18;2.88;;;;;;;;;;4874229;29;20049;-84
2023/07/08 13:41:21;;;;;;;4.63;2.42;;;;;;;;;;4860762;29;20041;-87
2023/07/08 13:44:08;;;;;;;2.63;2.10;;;;;;;;;;4867143;29;20049;-84
2023/07/08 13:46:57;;;;;;;3.15;2.38;;;;;;;;;;4874701;29;20050;-87
2023/07/08 13:49:48;;;;;;;5.40;3.00;;;;;;;;;;4866733;29;20401;-82
2023/07/08 13:52:33;;;;;;;4.47;3.00;;;;;;;;;;4872071;29;20044;-86
2023/07/08 13:55:34;;;;;;;6.78;2.38;;;;;;;;;;4874383;29;20041;-87
2023/07/08 13:58:19;;;;;;;4.22;2.50;;;;;;;;;;4873217;29;20409;-86
2023/07/08 14:01:08;;;;;;;6.45;2.97;;;;;;;;;;4878694;29;20045;-82
2023/07/08 14:03:55;;;;;;;2.78;2.25;;;;;;;;;;4874277;29;20049;-82
2023/07/08 14:06:41;;;;;;;4.80;2.75;;;;;;;;;;4874638;29;20045;-85
2023/07/08 14:09:32;;;;;;;8.98;2.60;;;;;;;;;;4873032;29;20528;-85
2023/07/08 14:12:21;;;;;;;7.13;2.85;;;;;;;;;;4873255;29;20049;-87
2023/07/08 14:15:08;;;;;;;4.70;2.63;;;;;;;;;;4867496;29;20041;-88
2023/07/08 14:17:53;;;;;;;3.97;2.65;;;;;;;;;;4868262;29;20049;-85
2023/07/08 14:20:38;;;;;;;4.95;2.83;;;;;;;;;;4860214;29;20045;-86
2023/07/08 14:23:24;;;;;;;4.63;3.17;;;;;;;;;;4874513;29;20042;-87
2023/07/08 14:26:11;;;;;;;4.78;3.10;;;;;;;;;;4867680;29;20046;-86
2023/07/08 14:28:58;;;;;;;4.00;2.95;;;;;;;;;;4874379;29;20061;-86
2023/07/08 14:31:43;;;;;;;5.70;2.60;;;;;;;;;;4860311;29;20052;-84
2023/07/08 14:34:28;;;;;;;4.32;2.40;;;;;;;;;;4868374;29;20489;-86
2023/07/08 14:37:18;;;;;;;4.32;3.08;;;;;;;;;;4869278;29;20053;-85
2023/07/08 14:40:35;;;;;;;4.25;2.90;;;;;;;;;;4872205;29;20053;-84
2023/07/08 14:43:30;;;;;;;13.25;3.88;;;;;;;;;;4870777;29;20482;-86
2023/07/08 14:46:16;;;;;;;9.05;3.40;;;;;;;;;;4866704;29;20152;-85
2023/07/08 14:49:08;;;;;;;5.45;2.80;;;;;;;;;;4867936;29;20041;-86
2023/07/08 14:52:14;;;;;;;4.68;2.88;;;;;;;;;;4865329;29;20049;-85
2023/07/08 14:55:03;;;;;;;4.22;2.80;;;;;;;;;;4874031;29;20401;-88
2023/07/08 14:57:52;;;;;;;4.72;2.70;;;;;;;;;;4869225;29;20045;-88
2023/07/08 15:00:46;;;;;;;8.57;3.67;;;;;;;;;;4875618;29;20045;-86
2023/07/08 15:03:31;;;;;;;5.20;2.78;;;;;;;;;;4866546;29;20037;-83
2023/07/08 15:06:17;;;;;;;3.30;2.38;;;;;;;;;;4869167;29;20033;-84
2023/07/08 15:09:03;;;;;;;5.03;2.50;;;;;;;;;;4872442;29;20049;-87
2023/07/08 15:11:51;;;;;;;10.95;3.97;;;;;;;;;;4867969;29;20405;-85
2023/07/08 15:14:47;;;;;;;7.10;3.17;;;;;;;;;;4865725;29;20045;-85
2023/07/08 15:17:32;;;;;;;5.40;2.60;;;;;;;;;;4865250;29;20065;-86
2023/07/08 15:20:18;;;;;;;5.55;2.90;;;;;;;;;;4878340;29;20045;-86
2023/07/08 15:23:03;;;;;;;8.80;4.85;;;;;;;;;;4866829;29;20041;-86
2023/07/08 15:25:49;;;;;;;3.35;2.60;;;;;;;;;;4872561;29;20049;-84
2023/07/08 15:28:49;;;;;;;4.55;2.70;;;;;;;;;;4866831;29;20037;-84
2023/07/08 15:31:35;;;;;;;5.40;3.00;;;;;;;;;;4867865;29;20053;-88
2023/07/08 15:34:25;;;;;;;3.95;2.42;;;;;;;;;;4861087;29;20048;-87
2023/07/08 15:37:14;;;;;;;6.63;2.80;;;;;;;;;;4860900;29;20042;-87
2023/07/08 15:40:00;;;;;;;5.78;3.00;;;;;;;;;;4872202;29;20045;-87
2023/07/08 15:42:48;;;;;;;5.35;3.15;;;;;;;;;;4857051;29;20053;-84
2023/07/08 15:45:37;;;;;;;6.10;3.45;;;;;;;;;;4859860;29;20045;-88
2023/07/08 15:48:22;;;;;;;7.85;3.15;;;;;;;;;;4876001;29;20057;-86
2023/07/08 15:51:15;;;;;;;5.35;2.97;;;;;;;;;;4873864;29;20049;-84
2023/07/08 15:54:03;;;;;;;8.52;3.15;;;;;;;;;;4876899;29;20086;-86
2023/07/08 15:56:51;;;;;;;9.52;2.95;;;;;;;;;;4869730;29;20056;-82
2023/07/08 15:59:37;;;;;;;3.83;2.65;;;;;;;;;;4866844;29;20042;-87
2023/07/08 16:02:36;;;;;;;3.75;2.63;;;;;;;;;;4856838;29;20045;-85
2023/07/08 16:05:22;;;;;;;6.80;3.30;;;;;;;;;;4876544;29;20405;-86
2023/07/08 16:08:09;;;;;;;4.20;2.92;;;;;;;;;;4877018;29;20049;-83
2023/07/08 16:11:04;;;;;;;4.32;2.97;;;;;;;;;;4868892;29;20489;-85
2023/07/08 16:13:49;;;;;;;8.38;3.20;;;;;;;;;;4873079;29;20048;-88
2023/07/08 16:16:37;;;;;;;4.20;3.28;;;;;;;;;;4863489;29;20044;-85
2023/07/08 16:19:23;;;;;;;4.43;3.30;;;;;;;;;;4882648;29;20041;-86
2023/07/08 16:22:09;;;;;;;8.43;3.60;;;;;;;;;;4873414;29;20053;-87
2023/07/08 16:24:56;;;;;;;6.72;3.30;;;;;;;;;;4869929;29;20049;-88
2023/07/08 16:27:50;;;;;;;3.58;3.05;;;;;;;;;;4869338;29;20037;-87
2023/07/08 16:30:48;;;;;;;8.85;3.63;;;;;;;;;;4869024;29;20041;-86
2023/07/08 16:33:57;;;;;;;6.70;3.22;;;;;;;;;;4876208;29;20040;-87
2023/07/08 16:36:50;;;;;;;5.95;3.20;;;;;;;;;;4869184;29;20053;-86
2023/07/08 16:39:38;;;;;;;4.90;3.20;;;;;;;;;;4868267;29;20049;-87
2023/07/08 16:42:38;;;;;;;4.45;2.85;;;;;;;;;;4870525;29;20496;-87
2023/07/08 16:45:25;;;;;;;10.05;5.97;;;;;;;;;;4873599;29;20053;-86
2023/07/08 16:48:12;;;;;;;8.68;4.45;;;;;;;;;;4874577;29;20049;-84
2023/07/08 16:50:57;;;;;;;14.02;5.93;;;;;;;;;;4862391;29;20057;-87
2023/07/08 16:53:44;;;;;;;9.38;5.57;;;;;;;;;;4872040;29;20449;-86
2023/07/08 16:56:29;;;;;;;16.15;5.63;;;;;;;;;;4881760;29;20054;-85
2023/07/08 16:59:50;;;;;;;13.30;4.13;;;;;;;;;;4861565;29;20382;-88
2023/07/08 17:02:41;;;;;;;8.85;4.03;;;;;;;;;;4865547;29;20065;-86
2023/07/08 17:05:35;;;;;;;9.38;3.97;;;;;;;;;;4874419;29;20449;-87
2023/07/08 17:08:37;;;;;;;8.93;4.30;;;;;;;;;;4888333;29;20477;-87
2023/07/08 17:11:26;;;;;;;6.35;3.92;;;;;;;;;;4866757;29;20058;-85
2023/07/08 17:14:16;;;;;;;6.55;3.72;;;;;;;;;;4864037;29;20493;-87
2023/07/08 17:17:30;;;;;;;7.28;4.03;;;;;;;;;;4866954;29;20041;-88
2023/07/08 17:20:31;;;;;;;7.38;4.68;;;;;;;;;;4860865;29;20033;-86
2023/07/08 17:23:21;;;;;;;17.33;4.60;;;;;;;;;;4874039;29;20049;-85
2023/07/08 17:26:07;;;;;;;11.25;4.40;;;;;;;;;;4862205;29;20061;-85
2023/07/08 17:28:53;;;;;;;10.52;4.70;;;;;;;;;;4868403;29;20245;-84
2023/07/08 17:31:38;;;;;;;15.82;4.88;;;;;;;;;;4886107;29;20049;-84
2023/07/08 17:34:25;;;;;;;10.60;5.70;;;;;;;;;;4859939;29;20053;-87
2023/07/08 17:37:10;;;;;;;11.18;5.05;;;;;;;;;;4868320;29;20053;-86
2023/07/08 17:39:56;;;;;;;9.95;5.30;;;;;;;;;;4861146;29;20434;-86
2023/07/08 17:42:43;;;;;;;13.10;4.85;;;;;;;;;;4868729;29;20033;-85
2023/07/08 17:45:40;;;;;;;11.18;4.68;;;;;;;;;;4862857;29;20050;-86
2023/07/08 17:48:26;;;;;;;9.20;4.70;;;;;;;;;;4867285;29;20485;-86
2023/07/08 17:51:13;;;;;;;10.32;4.20;;;;;;;;;;4886817;29;20057;-86